Wakayama, Japan
Current Conditions -  °F | °C
As of 11:30 PM on Thursday 27 Nov 2014 (Local Time) from RJBB Reporting Station
Few Clouds Few Clouds  
Wind Chill: 54°   Ceiling: Unl
Heat Index: 54°   Visibility: 6mi
Dew Point: 43°   Wind: 8mph
Humidity: 67%   Direction: 60°ENE
Pressure: 30.21"   Gusts: NA
Location:  34.22°N, 135.17°E
Report Text: RJBB 271430Z 06007KT 040V100 9999 FEW035 12/06 Q1023 NOSIG
Loading
Personal Weather Stations






























Interactive Weather Map New forecast layout! Learn more

10-Day Weather Forecast

Advertisements
Track Severe Weather on mobile